createdAt,value
2023-10-20T00:00:30.608Z,99116.06
2023-10-20T00:02:57.969Z,99117.72
2023-10-20T00:05:25.277Z,99115.97
2023-10-20T00:07:54.692Z,99120.19
2023-10-20T00:10:22.220Z,99124.34
2023-10-20T00:12:50.230Z,99125.16
2023-10-20T00:15:21.312Z,99128.53
2023-10-20T00:17:48.854Z,99123.44
2023-10-20T00:20:16.333Z,99127.66
2023-10-20T00:22:43.671Z,99124.25
2023-10-20T00:25:13.682Z,99125.13
2023-10-20T00:27:42.700Z,99125.97
2023-10-20T00:30:10.944Z,99131.09
2023-10-20T00:32:41.837Z,99124.25
2023-10-20T00:35:10.818Z,99132.78
2023-10-20T00:37:38.412Z,99132.78
2023-10-20T00:40:09.027Z,99135.41
2023-10-20T00:42:37.236Z,99143.06
2023-10-20T00:45:05.416Z,99136.22
2023-10-20T00:47:33.391Z,99134.56
2023-10-20T00:50:01.039Z,99131.16
2023-10-20T00:52:30.350Z,99130.31
2023-10-20T00:54:58.378Z,99140.66
2023-10-20T00:57:27.979Z,99131.28
2023-10-20T00:59:55.323Z,99138.94
2023-10-20T01:02:22.838Z,99136.44
2023-10-20T01:04:50.244Z,99130.50
2023-10-20T01:07:17.469Z,99133.94
2023-10-20T01:09:45.000Z,99136.50
2023-10-20T01:12:12.545Z,99133.06
2023-10-20T01:14:40.103Z,99133.06
2023-10-20T01:17:07.514Z,99134.75
2023-10-20T01:19:34.848Z,99136.44
2023-10-20T01:22:02.128Z,99137.25
2023-10-20T01:24:31.253Z,99135.53
2023-10-20T01:27:00.239Z,99133.75
2023-10-20T01:29:27.785Z,99137.97
2023-10-20T01:31:55.113Z,99134.53
2023-10-20T01:34:22.998Z,99136.22
2023-10-20T01:36:50.405Z,99125.06
2023-10-20T01:39:17.760Z,99135.31
2023-10-20T01:41:45.253Z,99134.47
2023-10-20T01:44:14.552Z,99134.47
2023-10-20T01:46:50.834Z,99138.72
2023-10-20T01:49:21.251Z,99144.72
2023-10-20T01:51:48.617Z,99143.81
2023-10-20T01:54:15.886Z,99140.28
2023-10-20T01:56:43.217Z,99149.72
2023-10-20T01:59:10.861Z,99142.06
2023-10-20T02:01:40.043Z,99145.50
2023-10-20T02:04:07.312Z,99158.31
2023-10-20T02:06:34.959Z,99150.66
2023-10-20T02:09:03.135Z,99152.38
2023-10-20T02:11:30.598Z,99158.38
2023-10-20T02:13:58.597Z,99170.31
2023-10-20T02:16:26.038Z,99167.75
2023-10-20T02:18:53.363Z,99170.19
2023-10-20T02:21:20.954Z,99166.75
2023-10-20T02:23:48.330Z,99153.75
2023-10-20T02:26:18.298Z,99166.69
2023-10-20T02:28:45.732Z,99168.44
2023-10-20T02:31:19.146Z,99170.94
2023-10-20T02:33:46.911Z,99171.72
2023-10-20T02:36:18.453Z,99170.78
2023-10-20T02:38:46.210Z,99173.25
2023-10-20T02:41:15.366Z,99171.53
2023-10-20T02:43:42.968Z,99163.81
2023-10-20T02:46:10.950Z,99158.63
2023-10-20T02:48:38.415Z,99156.03
2023-10-20T02:51:09.232Z,99161.97
2023-10-20T02:53:36.540Z,99161.00
2023-10-20T02:56:10.347Z,99161.84
2023-10-20T02:58:37.612Z,99161.78
2023-10-20T03:01:06.836Z,99157.50
2023-10-20T03:03:34.717Z,99156.63
2023-10-20T03:06:03.331Z,99157.44
2023-10-20T03:08:31.502Z,99151.50
2023-10-20T03:10:58.873Z,99155.84
2023-10-20T03:13:26.950Z,99153.34
2023-10-20T03:15:55.389Z,99149.97
2023-10-20T03:18:22.703Z,99149.19
2023-10-20T03:20:50.163Z,99157.63
2023-10-20T03:23:18.189Z,99159.41
2023-10-20T03:25:45.461Z,99158.59
2023-10-20T03:28:12.804Z,99162.00
2023-10-20T03:30:43.324Z,99161.19
2023-10-20T03:33:14.869Z,99162.88
2023-10-20T03:35:42.334Z,99168.91
2023-10-20T03:38:10.448Z,99165.50
2023-10-20T03:40:39.242Z,99165.50
2023-10-20T03:43:07.950Z,99165.53
2023-10-20T03:45:50.666Z,99171.47
2023-10-20T03:48:18.249Z,99176.59
2023-10-20T03:50:47.742Z,99169.75
2023-10-20T03:53:28.365Z,99181.72
2023-10-20T03:56:02.782Z,99178.22
2023-10-20T03:58:30.726Z,99180.78
2023-10-20T04:00:59.018Z,99185.09
2023-10-20T04:03:29.315Z,99187.59
2023-10-20T04:05:56.747Z,99194.41
2023-10-20T04:08:24.498Z,99190.16
2023-10-20T04:10:58.040Z,99192.72
2023-10-20T04:13:25.461Z,99186.72
2023-10-20T04:15:54.040Z,99192.66
2023-10-20T04:18:21.861Z,99198.56
2023-10-20T04:20:52.147Z,99196.81
2023-10-20T04:23:19.671Z,99193.34
2023-10-20T04:25:56.590Z,99196.78
2023-10-20T04:28:34.505Z,99209.56
2023-10-20T04:31:20.503Z,99208.75
2023-10-20T04:34:06.138Z,99201.88
2023-10-20T04:36:51.845Z,99209.56
2023-10-20T04:39:37.908Z,99201.06
2023-10-20T04:42:23.571Z,99198.56
2023-10-20T04:45:19.656Z,99203.63
2023-10-20T04:48:06.091Z,99200.16
2023-10-20T04:50:52.067Z,99200.09
2023-10-20T04:53:37.866Z,99194.22
2023-10-20T04:56:17.398Z,99200.25
2023-10-20T04:58:50.648Z,99200.25
2023-10-20T05:01:22.500Z,99202.75
2023-10-20T05:03:54.923Z,99200.19
2023-10-20T05:06:26.927Z,99208.69
2023-10-20T05:08:54.807Z,99210.44
2023-10-20T05:11:22.168Z,99206.22
2023-10-20T05:13:49.494Z,99214.00
2023-10-20T05:16:17.386Z,99213.13
2023-10-20T05:18:45.967Z,99219.16
2023-10-20T05:21:13.655Z,99217.53
2023-10-20T05:23:42.390Z,99218.53
2023-10-20T05:26:10.593Z,99222.88
2023-10-20T05:28:38.102Z,99222.81
2023-10-20T05:31:05.495Z,99216.00
2023-10-20T05:33:32.962Z,99221.94
2023-10-20T05:36:00.872Z,99211.78
2023-10-20T05:38:28.369Z,99221.13
2023-10-20T05:40:59.686Z,99216.13
2023-10-20T05:43:28.115Z,99215.44
2023-10-20T05:45:55.648Z,99217.22
2023-10-20T05:48:23.001Z,99230.06
2023-10-20T05:50:55.503Z,99224.22
2023-10-20T05:53:22.880Z,99224.25
2023-10-20T05:55:50.241Z,99218.44
2023-10-20T05:58:17.549Z,99225.41
2023-10-20T06:01:01.817Z,99215.41
2023-10-20T06:03:30.421Z,99220.63
2023-10-20T06:06:01.849Z,99222.41
2023-10-20T06:08:30.485Z,99223.41
2023-10-20T06:11:04.845Z,99225.28
2023-10-20T06:13:37.070Z,99230.34
2023-10-20T06:16:09.946Z,99232.13
2023-10-20T06:18:38.127Z,99228.66
2023-10-20T06:21:06.028Z,99229.56
2023-10-20T06:23:34.372Z,99222.03
2023-10-20T06:26:01.688Z,99217.88
2023-10-20T06:28:29.068Z,99222.41
2023-10-20T06:31:02.072Z,99226.78
2023-10-20T06:33:35.830Z,99229.53
2023-10-20T06:36:12.469Z,99228.88
2023-10-20T06:38:45.956Z,99228.28
2023-10-20T06:41:16.488Z,99232.63
2023-10-20T06:43:44.860Z,99229.09
2023-10-20T06:46:12.264Z,99235.00
2023-10-20T06:48:39.738Z,99231.59
2023-10-20T06:51:07.060Z,99237.81
2023-10-20T06:53:35.332Z,99230.28
2023-10-20T06:56:15.059Z,99237.97
2023-10-20T06:58:43.189Z,99229.44
2023-10-20T07:01:10.591Z,99238.78
2023-10-20T07:03:38.008Z,99242.22
2023-10-20T07:06:08.622Z,99245.59
2023-10-20T07:08:36.238Z,99243.72
2023-10-20T07:11:06.289Z,99245.38
2023-10-20T07:13:33.778Z,99252.41
2023-10-20T07:16:02.031Z,99252.63
2023-10-20T07:18:29.700Z,99257.81
2023-10-20T07:20:58.432Z,99260.31
2023-10-20T07:23:26.617Z,99265.66
2023-10-20T07:25:54.771Z,99266.00
2023-10-20T07:28:23.214Z,99272.31
2023-10-20T07:30:51.174Z,99279.38
2023-10-20T07:33:18.657Z,99270.88
2023-10-20T07:35:46.169Z,99278.72
2023-10-20T07:38:18.526Z,99284.19
2023-10-20T07:40:46.187Z,99279.28
2023-10-20T07:43:13.513Z,99285.47
2023-10-20T07:45:42.003Z,99288.16
2023-10-20T07:48:10.157Z,99287.38
2023-10-20T07:50:37.837Z,99289.94
2023-10-20T07:53:05.291Z,99285.78
2023-10-20T07:55:32.602Z,99282.53
2023-10-20T07:57:59.985Z,99280.06
2023-10-20T08:00:27.407Z,99279.38
2023-10-20T08:02:56.072Z,99272.94
2023-10-20T08:05:27.330Z,99266.66
2023-10-20T08:07:55.343Z,99267.38
2023-10-20T08:10:25.195Z,99273.03
2023-10-20T08:12:52.798Z,99271.63
2023-10-20T08:15:20.713Z,99281.88
2023-10-20T08:17:49.753Z,99290.31
2023-10-20T08:20:17.818Z,99290.25
2023-10-20T08:22:45.209Z,99291.13
2023-10-20T08:25:12.849Z,99283.44
2023-10-20T08:27:40.686Z,99288.59
2023-10-20T08:30:08.510Z,99291.97
2023-10-20T08:32:36.247Z,99296.09
2023-10-20T08:35:04.855Z,99287.47
2023-10-20T08:37:32.249Z,99289.00
2023-10-20T08:39:59.565Z,99287.19
2023-10-20T08:42:26.964Z,99288.91
2023-10-20T08:44:54.488Z,99290.50
2023-10-20T08:47:23.780Z,99299.16
2023-10-20T08:49:52.121Z,99298.41
2023-10-20T08:52:19.705Z,99293.97
2023-10-20T08:54:49.269Z,99303.25
2023-10-20T08:57:16.787Z,99303.06
2023-10-20T08:59:51.991Z,99300.22
2023-10-20T09:02:20.156Z,99297.47
2023-10-20T09:04:53.360Z,99300.59
2023-10-20T09:07:23.117Z,99300.38
2023-10-20T09:09:50.918Z,99293.31
2023-10-20T09:12:18.177Z,99297.50
2023-10-20T09:14:45.653Z,99304.22
2023-10-20T09:17:26.195Z,99305.00
2023-10-20T09:20:04.203Z,99302.94
2023-10-20T09:22:31.602Z,99298.38
2023-10-20T09:24:58.903Z,99311.81
2023-10-20T09:27:26.551Z,99311.56
2023-10-20T09:29:55.633Z,99308.91
2023-10-20T09:32:23.194Z,99316.34
2023-10-20T09:34:52.371Z,99317.00
2023-10-20T09:37:24.596Z,99315.09
2023-10-20T09:39:54.114Z,99316.75
2023-10-20T09:42:25.156Z,99321.78
2023-10-20T09:45:03.760Z,99322.44
2023-10-20T09:47:32.057Z,99312.78
2023-10-20T09:50:01.194Z,99318.56
2023-10-20T09:52:30.945Z,99315.03
2023-10-20T09:54:58.829Z,99306.69
2023-10-20T09:57:27.933Z,99312.78
2023-10-20T09:59:55.738Z,99307.63
2023-10-20T10:02:30.363Z,99309.25
2023-10-20T10:04:58.675Z,99308.22
2023-10-20T10:07:27.536Z,99308.88
2023-10-20T10:09:56.365Z,99318.84
2023-10-20T10:12:25.155Z,99312.47
2023-10-20T10:15:04.457Z,99316.53
2023-10-20T10:17:31.870Z,99304.66
2023-10-20T10:20:00.296Z,99313.97
2023-10-20T10:22:28.934Z,99313.75
2023-10-20T10:24:56.934Z,99309.31
2023-10-20T10:27:31.053Z,99309.16
2023-10-20T10:30:02.794Z,99310.84
2023-10-20T10:32:35.737Z,99314.44
2023-10-20T10:35:05.550Z,99318.19
2023-10-20T10:37:34.662Z,99324.50
2023-10-20T10:40:15.605Z,99322.94
2023-10-20T10:42:44.306Z,99324.97
2023-10-20T10:45:15.216Z,99328.75
2023-10-20T10:47:44.794Z,99325.91
2023-10-20T10:50:12.422Z,99328.31
2023-10-20T10:52:40.354Z,99323.78
2023-10-20T10:55:07.878Z,99319.66
2023-10-20T10:57:36.416Z,99322.25
2023-10-20T11:00:04.908Z,99317.94
2023-10-20T11:02:32.890Z,99327.22
2023-10-20T11:05:01.434Z,99318.53
2023-10-20T11:07:28.876Z,99328.44
2023-10-20T11:09:56.482Z,99332.34
2023-10-20T11:12:23.805Z,99331.25
2023-10-20T11:14:52.061Z,99329.56
2023-10-20T11:17:20.429Z,99332.13
2023-10-20T11:19:48.036Z,99336.44
2023-10-20T11:22:16.986Z,99331.44
2023-10-20T11:24:51.768Z,99328.00
2023-10-20T11:27:19.936Z,99335.59
2023-10-20T11:29:58.340Z,99332.13
2023-10-20T11:32:27.528Z,99320.03
2023-10-20T11:34:55.051Z,99322.69
2023-10-20T11:37:22.479Z,99321.06
2023-10-20T11:39:50.063Z,99324.69
2023-10-20T11:42:17.677Z,99324.81
2023-10-20T11:44:44.967Z,99318.06
2023-10-20T11:47:12.308Z,99322.41
2023-10-20T11:49:39.820Z,99319.75
2023-10-20T11:52:09.834Z,99324.75
2023-10-20T11:54:37.495Z,99329.72
2023-10-20T11:57:04.835Z,99333.78
2023-10-20T11:59:32.359Z,99335.41
2023-10-20T12:01:59.834Z,99332.00
2023-10-20T12:04:27.334Z,99325.91
2023-10-20T12:06:54.735Z,99325.03
2023-10-20T12:09:22.205Z,99325.88
2023-10-20T12:11:49.562Z,99326.75
2023-10-20T12:14:16.894Z,99325.72
2023-10-20T12:16:44.406Z,99330.63
2023-10-20T12:19:12.265Z,99331.28
2023-10-20T12:21:39.874Z,99332.06
2023-10-20T12:24:07.392Z,99329.31
2023-10-20T12:26:34.819Z,99331.91
2023-10-20T12:29:02.131Z,99327.66
2023-10-20T12:31:32.286Z,99331.91
2023-10-20T12:33:59.909Z,99329.31
2023-10-20T12:36:32.582Z,99336.91
2023-10-20T12:39:01.703Z,99332.41
2023-10-20T12:41:29.302Z,99338.94
2023-10-20T12:43:56.622Z,99338.56
2023-10-20T12:46:24.100Z,99337.47
2023-10-20T12:48:52.121Z,99349.84
2023-10-20T12:51:20.320Z,99347.94
2023-10-20T12:53:47.908Z,99343.44
2023-10-20T12:56:15.235Z,99351.63
2023-10-20T12:58:42.726Z,99353.03
2023-10-20T13:01:10.935Z,99351.09
2023-10-20T13:03:39.635Z,99347.53
2023-10-20T13:06:08.162Z,99351.75
2023-10-20T13:08:35.745Z,99354.97
2023-10-20T13:11:03.217Z,99344.44
2023-10-20T13:13:33.813Z,99350.22
2023-10-20T13:16:03.553Z,99355.91
2023-10-20T13:18:32.205Z,99351.25
2023-10-20T13:21:02.766Z,99350.94
2023-10-20T13:23:30.313Z,99348.13
2023-10-20T13:26:01.462Z,99341.25
2023-10-20T13:28:28.760Z,99340.34
2023-10-20T13:31:09.297Z,99349.00
2023-10-20T13:33:37.499Z,99345.66
2023-10-20T13:36:05.890Z,99339.78
2023-10-20T13:38:33.959Z,99346.63
2023-10-20T13:41:01.274Z,99344.88
2023-10-20T13:43:28.524Z,99340.66
2023-10-20T13:45:55.998Z,99352.56
2023-10-20T13:48:23.401Z,99349.13
2023-10-20T13:50:51.088Z,99349.84
2023-10-20T13:53:18.349Z,99351.47
2023-10-20T13:55:46.157Z,99359.75
2023-10-20T13:58:13.495Z,99358.84
2023-10-20T14:00:41.285Z,99358.88
2023-10-20T14:03:09.155Z,99352.31
2023-10-20T14:05:36.802Z,99351.28
2023-10-20T14:08:04.242Z,99348.63
2023-10-20T14:10:32.426Z,99346.81
2023-10-20T14:12:59.838Z,99346.56
2023-10-20T14:15:27.114Z,99344.06
2023-10-20T14:17:54.599Z,99340.50
2023-10-20T14:20:22.164Z,99341.22
2023-10-20T14:22:49.640Z,99350.31
2023-10-20T14:25:17.059Z,99350.41
2023-10-20T14:27:44.352Z,99343.34
2023-10-20T14:30:11.981Z,99351.88
2023-10-20T14:32:39.469Z,99352.63
2023-10-20T14:35:08.091Z,99359.41
2023-10-20T14:37:35.504Z,99354.22
2023-10-20T14:40:02.912Z,99360.16
2023-10-20T14:42:30.349Z,99362.66
2023-10-20T14:44:57.689Z,99368.41
2023-10-20T14:47:27.014Z,99374.34
2023-10-20T14:49:55.275Z,99375.31
2023-10-20T14:52:22.558Z,99376.22
2023-10-20T14:54:50.369Z,99379.66
2023-10-20T14:57:17.730Z,99386.50
2023-10-20T14:59:45.155Z,99393.31
2023-10-20T15:02:12.572Z,99395.53
2023-10-20T15:04:40.195Z,99397.63
2023-10-20T15:07:07.933Z,99397.28
2023-10-20T15:09:35.774Z,99400.44
2023-10-20T15:12:03.519Z,99414.06
2023-10-20T15:14:31.030Z,99415.94
2023-10-20T15:16:58.557Z,99423.41
2023-10-20T15:19:26.148Z,99418.03
2023-10-20T15:21:53.843Z,99420.44
2023-10-20T15:24:21.413Z,99422.19
2023-10-20T15:26:49.073Z,99421.31
2023-10-20T15:29:16.772Z,99423.06
2023-10-20T15:31:44.681Z,99431.53
2023-10-20T15:34:11.997Z,99429.78
2023-10-20T15:36:47.580Z,99433.63
2023-10-20T15:39:16.070Z,99431.47
2023-10-20T15:41:43.486Z,99438.19
2023-10-20T15:44:11.137Z,99428.56
2023-10-20T15:46:38.615Z,99436.16
2023-10-20T15:49:06.069Z,99430.19
2023-10-20T15:51:33.392Z,99434.53
2023-10-20T15:54:00.985Z,99438.94
2023-10-20T15:56:29.231Z,99432.78
2023-10-20T15:58:56.762Z,99426.53
2023-10-20T16:01:26.450Z,99430.47
2023-10-20T16:03:54.174Z,99422.75
2023-10-20T16:06:21.536Z,99439.72
2023-10-20T16:08:48.972Z,99444.69
2023-10-20T16:11:16.382Z,99433.75
2023-10-20T16:13:43.704Z,99431.13
2023-10-20T16:16:11.601Z,99432.88
2023-10-20T16:18:39.177Z,99434.50
2023-10-20T16:21:06.593Z,99442.94
2023-10-20T16:23:34.019Z,99433.38
2023-10-20T16:26:03.396Z,99430.53
2023-10-20T16:28:30.739Z,99429.72
2023-10-20T16:31:01.473Z,99437.38
2023-10-20T16:33:29.055Z,99444.34
2023-10-20T16:35:56.992Z,99447.81
2023-10-20T16:38:24.529Z,99447.69
2023-10-20T16:40:53.044Z,99445.22
2023-10-20T16:43:20.380Z,99444.28
2023-10-20T16:45:48.346Z,99435.63
2023-10-20T16:48:15.953Z,99443.09
2023-10-20T16:50:44.001Z,99447.22
2023-10-20T16:53:14.125Z,99449.63
2023-10-20T16:55:41.714Z,99470.09
2023-10-20T16:58:09.140Z,99449.41
2023-10-20T17:00:37.314Z,99467.19
2023-10-20T17:03:06.660Z,99455.31
2023-10-20T17:05:37.027Z,99469.66
2023-10-20T17:08:04.488Z,99479.13
2023-10-20T17:10:31.711Z,99461.38
2023-10-20T17:12:59.031Z,99470.91
2023-10-20T17:15:26.284Z,99473.59
2023-10-20T17:17:53.716Z,99463.34
2023-10-20T17:20:21.294Z,99465.81
2023-10-20T17:22:48.836Z,99466.75
2023-10-20T17:25:16.224Z,99476.16
2023-10-20T17:27:43.642Z,99483.66
2023-10-20T17:30:11.801Z,99481.03
2023-10-20T17:32:39.697Z,99488.31
2023-10-20T17:35:07.480Z,99487.28
2023-10-20T17:37:34.724Z,99485.31
2023-10-20T17:40:02.358Z,99481.91
2023-10-20T17:42:30.981Z,99484.50
2023-10-20T17:44:58.402Z,99492.38
2023-10-20T17:47:27.528Z,99495.81
2023-10-20T17:49:55.055Z,99497.72
2023-10-20T17:52:22.511Z,99494.44
2023-10-20T17:54:50.870Z,99490.38
2023-10-20T17:57:18.147Z,99493.72
2023-10-20T17:59:45.537Z,99481.13
2023-10-20T18:02:12.855Z,99474.41
2023-10-20T18:04:40.319Z,99482.88
2023-10-20T18:07:07.580Z,99475.06
2023-10-20T18:09:35.112Z,99469.97
2023-10-20T18:12:02.495Z,99479.22
2023-10-20T18:14:30.409Z,99488.47
2023-10-20T18:16:58.078Z,99492.63
2023-10-20T18:19:25.475Z,99491.69
2023-10-20T18:21:52.733Z,99492.53
2023-10-20T18:24:20.053Z,99494.22
2023-10-20T18:26:47.696Z,99498.28
2023-10-20T18:29:15.061Z,99490.41
2023-10-20T18:31:42.398Z,99494.50
2023-10-20T18:34:10.797Z,99500.47
2023-10-20T18:36:38.877Z,99497.06
2023-10-20T18:39:06.314Z,99498.44
2023-10-20T18:41:33.888Z,99502.38
2023-10-20T18:44:01.189Z,99499.81
2023-10-20T18:46:28.523Z,99495.53
2023-10-20T18:48:55.806Z,99487.88
2023-10-20T18:51:23.152Z,99492.16
2023-10-20T18:53:50.517Z,99491.91
2023-10-20T18:56:17.942Z,99489.38
2023-10-20T18:58:47.528Z,99489.38
2023-10-20T19:01:15.125Z,99488.50
2023-10-20T19:03:42.801Z,99485.00
2023-10-20T19:06:10.335Z,99485.63
2023-10-20T19:08:39.134Z,99488.97
2023-10-20T19:11:09.314Z,99492.47
2023-10-20T19:13:37.066Z,99492.56
2023-10-20T19:16:06.062Z,99495.34
2023-10-20T19:18:33.841Z,99498.69
2023-10-20T19:21:02.754Z,99489.50
2023-10-20T19:23:31.021Z,99494.94
2023-10-20T19:26:02.521Z,99501.94
2023-10-20T19:28:30.817Z,99511.41
2023-10-20T19:31:01.755Z,99508.94
2023-10-20T19:33:30.522Z,99498.66
2023-10-20T19:36:08.923Z,99487.59
2023-10-20T19:38:36.533Z,99483.22
2023-10-20T19:41:03.866Z,99500.03
2023-10-20T19:43:31.253Z,99495.81
2023-10-20T19:45:59.096Z,99490.81
2023-10-20T19:48:26.694Z,99495.81
2023-10-20T19:50:54.329Z,99491.50
2023-10-20T19:53:22.325Z,99483.84
2023-10-20T19:55:49.645Z,99488.09
2023-10-20T19:58:17.315Z,99488.94
2023-10-20T20:00:45.706Z,99481.38
2023-10-20T20:03:13.328Z,99488.31
2023-10-20T20:05:40.718Z,99491.00
2023-10-20T20:08:08.719Z,99494.50
2023-10-20T20:10:36.240Z,99494.50
2023-10-20T20:13:04.781Z,99495.59
2023-10-20T20:15:32.263Z,99495.59
2023-10-20T20:17:59.744Z,99484.25
2023-10-20T20:20:27.107Z,99485.91
2023-10-20T20:22:54.495Z,99492.97
2023-10-20T20:25:21.862Z,99493.25
2023-10-20T20:27:49.262Z,99492.38
2023-10-20T20:30:16.772Z,99506.72
2023-10-20T20:32:44.678Z,99497.34
2023-10-20T20:35:12.240Z,99501.44
2023-10-20T20:37:39.553Z,99502.97
2023-10-20T20:40:08.978Z,99508.88
2023-10-20T20:42:36.789Z,99514.91
2023-10-20T20:45:04.489Z,99516.84
2023-10-20T20:47:32.038Z,99524.59
2023-10-20T20:49:59.589Z,99518.59
2023-10-20T20:52:26.952Z,99513.38
2023-10-20T20:54:56.604Z,99512.50
2023-10-20T20:57:24.320Z,99527.59
2023-10-20T20:59:51.664Z,99535.09
2023-10-20T21:02:19.052Z,99525.84
2023-10-20T21:04:46.467Z,99527.66
2023-10-20T21:07:13.966Z,99532.16
2023-10-20T21:09:41.186Z,99533.75
2023-10-20T21:12:08.676Z,99547.53
2023-10-20T21:14:36.134Z,99541.50
2023-10-20T21:17:03.869Z,99538.72
2023-10-20T21:19:31.205Z,99535.16
2023-10-20T21:21:58.582Z,99535.16
2023-10-20T21:24:25.837Z,99535.31
2023-10-20T21:26:56.605Z,99531.00
2023-10-20T21:29:26.347Z,99534.63
2023-10-20T21:31:54.285Z,99538.88
2023-10-20T21:34:21.718Z,99530.94
2023-10-20T21:36:49.119Z,99530.63
2023-10-20T21:39:16.849Z,99525.38
2023-10-20T21:41:44.141Z,99537.25
2023-10-20T21:44:11.659Z,99535.41
2023-10-20T21:46:39.630Z,99540.50
2023-10-20T21:49:07.552Z,99547.38
2023-10-20T21:51:35.425Z,99541.41
2023-10-20T21:54:03.342Z,99542.34
2023-10-20T21:56:30.650Z,99544.16
2023-10-20T21:58:57.924Z,99542.03
2023-10-20T22:01:25.216Z,99542.03
2023-10-20T22:03:52.611Z,99531.91
2023-10-20T22:06:20.016Z,99531.03
2023-10-20T22:08:47.523Z,99533.66
2023-10-20T22:11:15.278Z,99528.56
2023-10-20T22:13:42.644Z,99525.06
2023-10-20T22:16:09.974Z,99520.44
2023-10-20T22:18:37.461Z,99532.25
2023-10-20T22:21:04.807Z,99526.19
2023-10-20T22:23:32.193Z,99541.47
2023-10-20T22:25:59.416Z,99535.50
2023-10-20T22:28:26.773Z,99547.34
2023-10-20T22:30:54.233Z,99548.16
2023-10-20T22:33:21.838Z,99542.03
2023-10-20T22:35:49.267Z,99557.31
2023-10-20T22:38:16.666Z,99545.47
2023-10-20T22:40:44.101Z,99553.09
2023-10-20T22:43:11.482Z,99545.19
2023-10-20T22:45:42.073Z,99550.16
2023-10-20T22:48:09.515Z,99549.34
2023-10-20T22:50:36.922Z,99541.09
2023-10-20T22:53:04.508Z,99550.63
2023-10-20T22:55:31.887Z,99555.91
2023-10-20T22:57:59.179Z,99548.16
2023-10-20T23:00:26.603Z,99550.56
2023-10-20T23:02:53.962Z,99560.59
2023-10-20T23:05:23.302Z,99553.66
2023-10-20T23:07:51.290Z,99561.06
2023-10-20T23:10:18.593Z,99573.63
2023-10-20T23:12:46.121Z,99566.84
2023-10-20T23:15:13.602Z,99568.59
2023-10-20T23:17:41.223Z,99565.28
2023-10-20T23:20:08.925Z,99570.38
2023-10-20T23:22:36.418Z,99573.69
2023-10-20T23:25:04.231Z,99574.56
2023-10-20T23:27:31.677Z,99573.69
2023-10-20T23:29:59.037Z,99581.28
2023-10-20T23:32:26.565Z,99584.47
2023-10-20T23:34:54.760Z,99584.34
2023-10-20T23:37:22.145Z,99587.47
2023-10-20T23:39:49.528Z,99590.91
2023-10-20T23:42:16.955Z,99595.66
2023-10-20T23:44:44.375Z,99598.19
2023-10-20T23:47:11.749Z,99598.28
2023-10-20T23:49:40.087Z,99599.78
2023-10-20T23:52:07.580Z,99591.22
2023-10-20T23:54:34.940Z,99597.06
2023-10-20T23:57:02.313Z,99596.31
2023-10-20T23:59:29.638Z,99605.78
